sensor_id;sensor_type;location;lat;lon;timestamp;temperature;humidity
13496;DHT22;6820;49.374;8.452;2022-08-23T00:00:26;24.24;80.90
13496;DHT22;6820;49.374;8.452;2022-08-23T00:04:31;24.21;81.20
13496;DHT22;6820;49.374;8.452;2022-08-23T00:08:35;24.15;81.50
13496;DHT22;6820;49.374;8.452;2022-08-23T00:12:48;24.11;81.70
13496;DHT22;6820;49.374;8.452;2022-08-23T00:16:50;24.08;82.10
13496;DHT22;6820;49.374;8.452;2022-08-23T00:20:53;24.04;82.14
13496;DHT22;6820;49.374;8.452;2022-08-23T00:24:54;24.04;82.14
13496;DHT22;6820;49.374;8.452;2022-08-23T00:28:56;23.97;82.24
13496;DHT22;6820;49.374;8.452;2022-08-23T00:32:57;23.93;82.04
13496;DHT22;6820;49.374;8.452;2022-08-23T00:36:59;23.89;82.14
13496;DHT22;6820;49.374;8.452;2022-08-23T00:41:02;23.87;82.34
13496;DHT22;6820;49.374;8.452;2022-08-23T00:45:04;23.84;82.43
13496;DHT22;6820;49.374;8.452;2022-08-23T00:49:25;23.79;82.57
13496;DHT22;6820;49.374;8.452;2022-08-23T00:53:32;23.75;82.78
13496;DHT22;6820;49.374;8.452;2022-08-23T00:57:38;23.69;82.87
13496;DHT22;6820;49.374;8.452;2022-08-23T01:01:46;23.67;83.07
13496;DHT22;6820;49.374;8.452;2022-08-23T01:06:10;23.67;83.17
13496;DHT22;6820;49.374;8.452;2022-08-23T01:10:30;23.63;83.27
13496;DHT22;6820;49.374;8.452;2022-08-23T01:18:57;23.57;83.51
13496;DHT22;6820;49.374;8.452;2022-08-23T01:23:05;23.52;83.51
13496;DHT22;6820;49.374;8.452;2022-08-23T01:27:14;23.49;83.61
13496;DHT22;6820;49.374;8.452;2022-08-23T01:31:16;23.45;83.71
13496;DHT22;6820;49.374;8.452;2022-08-23T01:35:23;23.41;83.81
13496;DHT22;6820;49.374;8.452;2022-08-23T01:39:31;23.37;83.91
13496;DHT22;6820;49.374;8.452;2022-08-23T01:43:33;23.34;83.95
13496;DHT22;6820;49.374;8.452;2022-08-23T01:47:34;23.34;84.05
13496;DHT22;6820;49.374;8.452;2022-08-23T01:51:37;23.37;83.95
13496;DHT22;6820;49.374;8.452;2022-08-23T01:55:39;23.39;84.15
13496;DHT22;6820;49.374;8.452;2022-08-23T01:59:42;23.41;84.21
13496;DHT22;6820;49.374;8.452;2022-08-23T02:03:44;23.41;84.31
13496;DHT22;6820;49.374;8.452;2022-08-23T02:07:49;23.38;84.51
13496;DHT22;6820;49.374;8.452;2022-08-23T02:11:52;23.34;84.75
13496;DHT22;6820;49.374;8.452;2022-08-23T02:15:55;23.31;85.05
13496;DHT22;6820;49.374;8.452;2022-08-23T02:19:59;23.25;85.05
13496;DHT22;6820;49.374;8.452;2022-08-23T02:24:04;23.22;85.14
13496;DHT22;6820;49.374;8.452;2022-08-23T02:28:08;23.23;85.25
13496;DHT22;6820;49.374;8.452;2022-08-23T02:32:12;23.19;85.35
13496;DHT22;6820;49.374;8.452;2022-08-23T02:36:16;23.18;85.44
13496;DHT22;6820;49.374;8.452;2022-08-23T02:40:22;23.12;85.64
13496;DHT22;6820;49.374;8.452;2022-08-23T02:44:24;23.12;85.88
13496;DHT22;6820;49.374;8.452;2022-08-23T02:48:29;23.07;85.99
13496;DHT22;6820;49.374;8.452;2022-08-23T02:52:37;23.07;86.19
13496;DHT22;6820;49.374;8.452;2022-08-23T02:56:39;23.04;86.08
13496;DHT22;6820;49.374;8.452;2022-08-23T03:00:45;22.94;86.19
13496;DHT22;6820;49.374;8.452;2022-08-23T03:04:48;22.88;86.29
13496;DHT22;6820;49.374;8.452;2022-08-23T03:08:50;22.81;86.52
13496;DHT22;6820;49.374;8.452;2022-08-23T03:12:51;22.76;86.63
13496;DHT22;6820;49.374;8.452;2022-08-23T03:16:53;22.70;86.82
13496;DHT22;6820;49.374;8.452;2022-08-23T03:20:58;22.67;87.12
13496;DHT22;6820;49.374;8.452;2022-08-23T03:25:00;22.64;87.37
13496;DHT22;6820;49.374;8.452;2022-08-23T03:29:13;22.63;87.37
13496;DHT22;6820;49.374;8.452;2022-08-23T03:33:44;22.60;87.57
13496;DHT22;6820;49.374;8.452;2022-08-23T03:37:47;22.54;87.76
13496;DHT22;6820;49.374;8.452;2022-08-23T03:41:55;22.48;87.96
13496;DHT22;6820;49.374;8.452;2022-08-23T03:45:59;22.41;88.06
13496;DHT22;6820;49.374;8.452;2022-08-23T03:50:02;22.33;88.21
13496;DHT22;6820;49.374;8.452;2022-08-23T03:54:06;22.26;88.40
13496;DHT22;6820;49.374;8.452;2022-08-23T03:58:09;22.24;88.31
13496;DHT22;6820;49.374;8.452;2022-08-23T04:02:11;22.27;88.31
13496;DHT22;6820;49.374;8.452;2022-08-23T04:06:14;22.31;88.10
13496;DHT22;6820;49.374;8.452;2022-08-23T04:10:17;22.30;88.10
13496;DHT22;6820;49.374;8.452;2022-08-23T04:14:22;22.27;88.51
13496;DHT22;6820;49.374;8.452;2022-08-23T04:18:25;22.20;88.90
13496;DHT22;6820;49.374;8.452;2022-08-23T04:22:26;22.06;89.55
13496;DHT22;6820;49.374;8.452;2022-08-23T04:26:28;21.93;90.05
13496;DHT22;6820;49.374;8.452;2022-08-23T04:30:31;21.93;90.39
13496;DHT22;6820;49.374;8.452;2022-08-23T04:34:35;21.86;90.69
13496;DHT22;6820;49.374;8.452;2022-08-23T04:38:37;21.82;91.29
13496;DHT22;6820;49.374;8.452;2022-08-23T04:42:40;21.74;91.59
13496;DHT22;6820;49.374;8.452;2022-08-23T04:46:42;21.71;91.83
13496;DHT22;6820;49.374;8.452;2022-08-23T04:50:45;21.71;92.03
13496;DHT22;6820;49.374;8.452;2022-08-23T04:54:50;21.70;92.03
13496;DHT22;6820;49.374;8.452;2022-08-23T04:59:03;21.71;91.93
13496;DHT22;6820;49.374;8.452;2022-08-23T05:03:06;21.71;92.33
13496;DHT22;6820;49.374;8.452;2022-08-23T05:07:08;21.67;92.24
13496;DHT22;6820;49.374;8.452;2022-08-23T05:11:10;21.71;92.54
13496;DHT22;6820;49.374;8.452;2022-08-23T05:15:14;21.71;92.54
13496;DHT22;6820;49.374;8.452;2022-08-23T05:19:20;21.68;92.74
13496;DHT22;6820;49.374;8.452;2022-08-23T05:23:21;21.73;92.74
13496;DHT22;6820;49.374;8.452;2022-08-23T05:27:46;21.75;92.33
13496;DHT22;6820;49.374;8.452;2022-08-23T05:31:48;21.81;92.09
13496;DHT22;6820;49.374;8.452;2022-08-23T05:35:51;21.81;91.59
13496;DHT22;6820;49.374;8.452;2022-08-23T05:39:53;21.77;91.49
13496;DHT22;6820;49.374;8.452;2022-08-23T05:43:55;21.73;91.69
13496;DHT22;6820;49.374;8.452;2022-08-23T05:47:57;21.73;91.74
13496;DHT22;6820;49.374;8.452;2022-08-23T05:52:10;21.75;91.63
13496;DHT22;6820;49.374;8.452;2022-08-23T05:56:20;21.77;91.79
13496;DHT22;6820;49.374;8.452;2022-08-23T06:00:24;21.81;91.59
13496;DHT22;6820;49.374;8.452;2022-08-23T06:04:40;21.86;91.49
13496;DHT22;6820;49.374;8.452;2022-08-23T06:08:42;21.86;91.39
13496;DHT22;6820;49.374;8.452;2022-08-23T06:12:49;21.90;91.59
13496;DHT22;6820;49.374;8.452;2022-08-23T06:16:50;21.90;91.69
13496;DHT22;6820;49.374;8.452;2022-08-23T06:21:00;21.98;91.79
13496;DHT22;6820;49.374;8.452;2022-08-23T06:25:13;21.99;91.39
13496;DHT22;6820;49.374;8.452;2022-08-23T06:29:28;22.04;91.49
13496;DHT22;6820;49.374;8.452;2022-08-23T06:33:56;22.08;91.15
13496;DHT22;6820;49.374;8.452;2022-08-23T06:38:10;22.12;91.15
13496;DHT22;6820;49.374;8.452;2022-08-23T06:42:25;22.15;90.65
13496;DHT22;6820;49.374;8.452;2022-08-23T06:46:42;22.20;90.45
13496;DHT22;6820;49.374;8.452;2022-08-23T06:50:44;22.26;90.55
13496;DHT22;6820;49.374;8.452;2022-08-23T06:55:03;22.35;90.41
13496;DHT22;6820;49.374;8.452;2022-08-23T06:59:14;22.46;90.41
13496;DHT22;6820;49.374;8.452;2022-08-23T07:03:45;22.54;89.66
13496;DHT22;6820;49.374;8.452;2022-08-23T07:08:05;22.60;89.86
13496;DHT22;6820;49.374;8.452;2022-08-23T07:12:08;22.66;89.66
13496;DHT22;6820;49.374;8.452;2022-08-23T07:16:14;22.67;89.66
13496;DHT22;6820;49.374;8.452;2022-08-23T07:20:20;22.74;89.36
13496;DHT22;6820;49.374;8.452;2022-08-23T07:24:22;22.82;89.62
13496;DHT22;6820;49.374;8.452;2022-08-23T07:28:27;22.86;89.62
13496;DHT22;6820;49.374;8.452;2022-08-23T07:32:30;22.96;89.62
13496;DHT22;6820;49.374;8.452;2022-08-23T07:36:38;23.06;89.68
13496;DHT22;6820;49.374;8.452;2022-08-23T07:40:41;23.16;89.48
13496;DHT22;6820;49.374;8.452;2022-08-23T07:44:46;23.25;89.53
13496;DHT22;6820;49.374;8.452;2022-08-23T07:48:48;23.34;89.23
13496;DHT22;6820;49.374;8.452;2022-08-23T07:53:17;23.42;89.23
13496;DHT22;6820;49.374;8.452;2022-08-23T07:57:38;23.54;89.00
13496;DHT22;6820;49.374;8.452;2022-08-23T08:02:04;23.63;88.70
13496;DHT22;6820;49.374;8.452;2022-08-23T08:06:09;23.74;88.65
13496;DHT22;6820;49.374;8.452;2022-08-23T08:10:13;23.86;88.45
13496;DHT22;6820;49.374;8.452;2022-08-23T08:14:15;23.96;88.15
13496;DHT22;6820;49.374;8.452;2022-08-23T08:18:30;24.08;88.41
13496;DHT22;6820;49.374;8.452;2022-08-23T08:22:58;24.18;88.41
13496;DHT22;6820;49.374;8.452;2022-08-23T08:27:00;24.30;88.37
13496;DHT22;6820;49.374;8.452;2022-08-23T08:31:03;24.34;88.07
13496;DHT22;6820;49.374;8.452;2022-08-23T08:35:06;24.33;88.13
13496;DHT22;6820;49.374;8.452;2022-08-23T08:39:13;24.46;88.37
13496;DHT22;6820;49.374;8.452;2022-08-23T08:43:22;24.64;87.83
13496;DHT22;6820;49.374;8.452;2022-08-23T08:47:48;24.82;87.39
13496;DHT22;6820;49.374;8.452;2022-08-23T08:52:01;25.04;86.59
13496;DHT22;6820;49.374;8.452;2022-08-23T08:56:29;25.19;85.75
13496;DHT22;6820;49.374;8.452;2022-08-23T09:00:56;25.31;85.71
13496;DHT22;6820;49.374;8.452;2022-08-23T09:05:00;25.35;85.17
13496;DHT22;6820;49.374;8.452;2022-08-23T09:18:15;25.78;85.14
13496;DHT22;6820;49.374;8.452;2022-08-23T09:22:19;25.91;84.60
13496;DHT22;6820;49.374;8.452;2022-08-23T09:26:30;26.04;84.20
13496;DHT22;6820;49.374;8.452;2022-08-23T09:30:48;26.19;84.26
13496;DHT22;6820;49.374;8.452;2022-08-23T09:35:37;26.31;83.47
13496;DHT22;6820;49.374;8.452;2022-08-23T09:39:32;26.41;83.43
13496;DHT22;6820;49.374;8.452;2022-08-23T09:43:44;26.49;83.53
13496;DHT22;6820;49.374;8.452;2022-08-23T09:47:50;26.65;82.83
13496;DHT22;6820;49.374;8.452;2022-08-23T09:51:54;26.72;82.70
13496;DHT22;6820;49.374;8.452;2022-08-23T09:56:08;26.84;82.40
13496;DHT22;6820;49.374;8.452;2022-08-23T10:04:23;27.11;81.27
13496;DHT22;6820;49.374;8.452;2022-08-23T10:08:53;27.20;79.85
13496;DHT22;6820;49.374;8.452;2022-08-23T10:12:58;27.25;80.83
13496;DHT22;6820;49.374;8.452;2022-08-23T10:21:20;27.45;80.30
13496;DHT22;6820;49.374;8.452;2022-08-23T10:29:38;27.74;79.77
13496;DHT22;6820;49.374;8.452;2022-08-23T10:33:51;27.84;79.53
13496;DHT22;6820;49.374;8.452;2022-08-23T10:38:10;27.98;79.14
13496;DHT22;6820;49.374;8.452;2022-08-23T10:51:41;28.27;78.70
13496;DHT22;6820;49.374;8.452;2022-08-23T10:55:53;28.42;77.97
13496;DHT22;6820;49.374;8.452;2022-08-23T11:00:15;28.58;77.48
13496;DHT22;6820;49.374;8.452;2022-08-23T11:13:24;28.94;76.91
13496;DHT22;6820;49.374;8.452;2022-08-23T11:22:11;29.14;75.99
13496;DHT22;6820;49.374;8.452;2022-08-23T11:42:56;29.60;72.17
13496;DHT22;6820;49.374;8.452;2022-08-23T11:47:06;29.78;72.77
13496;DHT22;6820;49.374;8.452;2022-08-23T11:55:39;29.99;71.84
13496;DHT22;6820;49.374;8.452;2022-08-23T12:00:03;30.15;70.04
13496;DHT22;6820;49.374;8.452;2022-08-23T12:04:40;30.29;70.30
13496;DHT22;6820;49.374;8.452;2022-08-23T12:08:57;30.45;69.90
13496;DHT22;6820;49.374;8.452;2022-08-23T12:13:47;30.60;70.46
13496;DHT22;6820;49.374;8.452;2022-08-23T12:21:46;30.88;69.93
13496;DHT22;6820;49.374;8.452;2022-08-23T12:26:02;31.03;69.02
13496;DHT22;6820;49.374;8.452;2022-08-23T12:30:30;31.12;67.45
13496;DHT22;6820;49.374;8.452;2022-08-23T12:43:27;31.67;66.50
13496;DHT22;6820;49.374;8.452;2022-08-23T12:47:31;31.62;63.43
13496;DHT22;6820;49.374;8.452;2022-08-23T12:51:49;31.75;62.84
13496;DHT22;6820;49.374;8.452;2022-08-23T12:55:57;31.97;65.48
13496;DHT22;6820;49.374;8.452;2022-08-23T13:04:18;32.34;65.13
13496;DHT22;6820;49.374;8.452;2022-08-23T13:08:21;32.50;65.13
13496;DHT22;6820;49.374;8.452;2022-08-23T13:12:35;32.61;64.41
13496;DHT22;6820;49.374;8.452;2022-08-23T13:16:42;32.73;63.79
13496;DHT22;6820;49.374;8.452;2022-08-23T13:20:44;32.93;63.79
13496;DHT22;6820;49.374;8.452;2022-08-23T13:33:18;33.35;62.26
13496;DHT22;6820;49.374;8.452;2022-08-23T13:37:28;33.49;62.56
13496;DHT22;6820;49.374;8.452;2022-08-23T13:41:32;33.62;62.63
13496;DHT22;6820;49.374;8.452;2022-08-23T13:45:44;33.68;61.72
13496;DHT22;6820;49.374;8.452;2022-08-23T13:49:48;33.82;61.91
13496;DHT22;6820;49.374;8.452;2022-08-23T13:53:52;33.90;61.23
13496;DHT22;6820;49.374;8.452;2022-08-23T13:57:55;33.89;61.59
13496;DHT22;6820;49.374;8.452;2022-08-23T14:02:01;34.06;61.49
13496;DHT22;6820;49.374;8.452;2022-08-23T14:06:08;34.08;61.20
13496;DHT22;6820;49.374;8.452;2022-08-23T14:10:11;34.18;60.42
13496;DHT22;6820;49.374;8.452;2022-08-23T14:14:14;34.30;60.49
13496;DHT22;6820;49.374;8.452;2022-08-23T14:18:15;34.31;59.22
13496;DHT22;6820;49.374;8.452;2022-08-23T14:22:17;34.27;59.90
13496;DHT22;6820;49.374;8.452;2022-08-23T14:26:19;34.36;59.22
13496;DHT22;6820;49.374;8.452;2022-08-23T14:30:25;34.40;59.19
13496;DHT22;6820;49.374;8.452;2022-08-23T14:34:29;34.34;58.40
13496;DHT22;6820;49.374;8.452;2022-08-23T14:38:31;34.36;58.92
13496;DHT22;6820;49.374;8.452;2022-08-23T14:42:33;34.50;58.99
13496;DHT22;6820;49.374;8.452;2022-08-23T14:46:35;34.67;58.80
13496;DHT22;6820;49.374;8.452;2022-08-23T14:50:37;34.83;58.48
13496;DHT22;6820;49.374;8.452;2022-08-23T14:54:41;34.81;58.58
13496;DHT22;6820;49.374;8.452;2022-08-23T14:58:43;34.94;58.67
13496;DHT22;6820;49.374;8.452;2022-08-23T15:02:45;35.06;58.25
13496;DHT22;6820;49.374;8.452;2022-08-23T15:06:49;35.06;57.37
13496;DHT22;6820;49.374;8.452;2022-08-23T15:11:12;35.09;58.35
13496;DHT22;6820;49.374;8.452;2022-08-23T15:15:35;34.98;57.76
13496;DHT22;6820;49.374;8.452;2022-08-23T15:19:38;35.02;57.18
13496;DHT22;6820;49.374;8.452;2022-08-23T15:23:41;35.00;56.99
13496;DHT22;6820;49.374;8.452;2022-08-23T15:27:43;34.19;57.96
13496;DHT22;6820;49.374;8.452;2022-08-23T15:31:46;33.50;58.24
13496;DHT22;6820;49.374;8.452;2022-08-23T15:35:50;33.06;59.69
13496;DHT22;6820;49.374;8.452;2022-08-23T15:39:52;32.99;60.83
13496;DHT22;6820;49.374;8.452;2022-08-23T15:43:54;33.40;59.07
13496;DHT22;6820;49.374;8.452;2022-08-23T15:47:56;33.72;58.23
13496;DHT22;6820;49.374;8.452;2022-08-23T15:51:59;33.92;57.81
13496;DHT22;6820;49.374;8.452;2022-08-23T15:56:01;34.15;58.86
13496;DHT22;6820;49.374;8.452;2022-08-23T16:00:06;34.28;58.14
13496;DHT22;6820;49.374;8.452;2022-08-23T16:04:12;34.45;59.31
13496;DHT22;6820;49.374;8.452;2022-08-23T16:08:18;34.43;58.12
13496;DHT22;6820;49.374;8.452;2022-08-23T16:12:28;34.31;56.85
13496;DHT22;6820;49.374;8.452;2022-08-23T16:16:30;34.28;57.95
13496;DHT22;6820;49.374;8.452;2022-08-23T16:20:36;34.36;57.75
13496;DHT22;6820;49.374;8.452;2022-08-23T16:24:38;34.30;58.80
13496;DHT22;6820;49.374;8.452;2022-08-23T16:28:44;34.33;57.75
13496;DHT22;6820;49.374;8.452;2022-08-23T16:32:47;34.33;59.41
13496;DHT22;6820;49.374;8.452;2022-08-23T16:36:51;34.23;57.36
13496;DHT22;6820;49.374;8.452;2022-08-23T16:40:58;34.12;57.65
13496;DHT22;6820;49.374;8.452;2022-08-23T16:45:00;34.01;58.24
13496;DHT22;6820;49.374;8.452;2022-08-23T16:49:02;33.96;58.76
13496;DHT22;6820;49.374;8.452;2022-08-23T16:53:04;33.90;58.17
13496;DHT22;6820;49.374;8.452;2022-08-23T16:57:07;33.79;58.66
13496;DHT22;6820;49.374;8.452;2022-08-23T17:01:11;33.71;59.67
13496;DHT22;6820;49.374;8.452;2022-08-23T17:05:14;33.59;60.74
13496;DHT22;6820;49.374;8.452;2022-08-23T17:09:22;33.45;60.96
13496;DHT22;6820;49.374;8.452;2022-08-23T17:13:25;33.29;61.94
13496;DHT22;6820;49.374;8.452;2022-08-23T17:17:27;33.09;62.56
13496;DHT22;6820;49.374;8.452;2022-08-23T17:21:29;32.90;61.02
13496;DHT22;6820;49.374;8.452;2022-08-23T17:25:30;32.73;63.37
13496;DHT22;6820;49.374;8.452;2022-08-23T17:29:32;32.53;62.52
13496;DHT22;6820;49.374;8.452;2022-08-23T17:33:38;32.32;64.90
13496;DHT22;6820;49.374;8.452;2022-08-23T17:37:40;32.12;66.20
13496;DHT22;6820;49.374;8.452;2022-08-23T17:41:42;31.91;67.09
13496;DHT22;6820;49.374;8.452;2022-08-23T17:45:47;31.68;66.14
13496;DHT22;6820;49.374;8.452;2022-08-23T17:49:50;31.46;68.13
13496;DHT22;6820;49.374;8.452;2022-08-23T17:53:52;31.27;68.76
13496;DHT22;6820;49.374;8.452;2022-08-23T17:57:54;31.09;69.87
13496;DHT22;6820;49.374;8.452;2022-08-23T18:02:04;30.88;70.39
13496;DHT22;6820;49.374;8.452;2022-08-23T18:06:08;30.73;70.20
13496;DHT22;6820;49.374;8.452;2022-08-23T18:10:17;30.59;70.82
13496;DHT22;6820;49.374;8.452;2022-08-23T18:14:19;30.46;71.34
13496;DHT22;6820;49.374;8.452;2022-08-23T18:18:21;30.30;72.23
13496;DHT22;6820;49.374;8.452;2022-08-23T18:22:23;30.18;72.66
13496;DHT22;6820;49.374;8.452;2022-08-23T18:26:25;30.04;73.35
13496;DHT22;6820;49.374;8.452;2022-08-23T18:30:48;29.89;73.48
13496;DHT22;6820;49.374;8.452;2022-08-23T18:34:51;29.79;74.21
13496;DHT22;6820;49.374;8.452;2022-08-23T18:38:53;29.67;74.60
13496;DHT22;6820;49.374;8.452;2022-08-23T18:42:55;29.57;75.48
13496;DHT22;6820;49.374;8.452;2022-08-23T18:46:57;29.47;75.82
13496;DHT22;6820;49.374;8.452;2022-08-23T18:51:01;29.37;76.31
13496;DHT22;6820;49.374;8.452;2022-08-23T18:55:04;29.26;77.14
13496;DHT22;6820;49.374;8.452;2022-08-23T18:59:07;29.18;77.33
13496;DHT22;6820;49.374;8.452;2022-08-23T19:03:08;29.10;77.43
13496;DHT22;6820;49.374;8.452;2022-08-23T19:07:11;29.00;77.86
13496;DHT22;6820;49.374;8.452;2022-08-23T19:11:13;28.92;77.76
13496;DHT22;6820;49.374;8.452;2022-08-23T19:15:16;28.83;78.16
13496;DHT22;6820;49.374;8.452;2022-08-23T19:19:18;28.74;78.49
13496;DHT22;6820;49.374;8.452;2022-08-23T19:23:20;28.65;78.59
13496;DHT22;6820;49.374;8.452;2022-08-23T19:27:22;28.60;79.02
13496;DHT22;6820;49.374;8.452;2022-08-23T19:31:24;28.52;79.42
13496;DHT22;6820;49.374;8.452;2022-08-23T19:35:29;28.45;79.61
13496;DHT22;6820;49.374;8.452;2022-08-23T19:39:31;28.39;79.81
13496;DHT22;6820;49.374;8.452;2022-08-23T19:43:33;28.32;80.15
13496;DHT22;6820;49.374;8.452;2022-08-23T19:47:35;28.23;79.85
13496;DHT22;6820;49.374;8.452;2022-08-23T19:51:37;28.15;80.05
13496;DHT22;6820;49.374;8.452;2022-08-23T19:55:40;28.08;80.58
13496;DHT22;6820;49.374;8.452;2022-08-23T19:59:44;27.96;81.47
13496;DHT22;6820;49.374;8.452;2022-08-23T20:03:46;27.69;86.55
13496;DHT22;6820;49.374;8.452;2022-08-23T20:07:48;27.63;87.68
13496;DHT22;6820;49.374;8.452;2022-08-23T20:11:50;27.61;86.59
13496;DHT22;6820;49.374;8.452;2022-08-23T20:15:55;27.59;85.70
13496;DHT22;6820;49.374;8.452;2022-08-23T20:19:57;27.59;85.40
13496;DHT22;6820;49.374;8.452;2022-08-23T20:23:58;27.55;85.21
13496;DHT22;6820;49.374;8.452;2022-08-23T20:28:06;27.46;84.71
13496;DHT22;6820;49.374;8.452;2022-08-23T20:32:08;27.43;84.95
13496;DHT22;6820;49.374;8.452;2022-08-23T20:36:10;27.33;86.63
13496;DHT22;6820;49.374;8.452;2022-08-23T20:40:13;26.94;86.13
13496;DHT22;6820;49.374;8.452;2022-08-23T20:44:15;26.83;84.14
13496;DHT22;6820;49.374;8.452;2022-08-23T20:48:17;26.75;84.34
13496;DHT22;6820;49.374;8.452;2022-08-23T20:52:19;26.68;85.82
13496;DHT22;6820;49.374;8.452;2022-08-23T20:56:20;26.64;86.06
13496;DHT22;6820;49.374;8.452;2022-08-23T21:00:23;26.66;85.47
13496;DHT22;6820;49.374;8.452;2022-08-23T21:04:25;26.68;85.47
13496;DHT22;6820;49.374;8.452;2022-08-23T21:08:31;26.68;85.86
13496;DHT22;6820;49.374;8.452;2022-08-23T21:12:35;26.66;86.56
13496;DHT22;6820;49.374;8.452;2022-08-23T21:16:36;26.68;87.15
13496;DHT22;6820;49.374;8.452;2022-08-23T21:20:38;26.65;87.45
13496;DHT22;6820;49.374;8.452;2022-08-23T21:24:40;26.61;87.55
13496;DHT22;6820;49.374;8.452;2022-08-23T21:28:42;26.59;87.84
13496;DHT22;6820;49.374;8.452;2022-08-23T21:32:43;26.57;87.74
13496;DHT22;6820;49.374;8.452;2022-08-23T21:36:45;26.57;87.25
13496;DHT22;6820;49.374;8.452;2022-08-23T21:40:56;26.54;87.15
13496;DHT22;6820;49.374;8.452;2022-08-23T21:44:59;26.51;86.66
13496;DHT22;6820;49.374;8.452;2022-08-23T21:49:03;26.50;86.36
13496;DHT22;6820;49.374;8.452;2022-08-23T21:53:05;26.49;85.96
13496;DHT22;6820;49.374;8.452;2022-08-23T21:57:07;26.44;85.80
13496;DHT22;6820;49.374;8.452;2022-08-23T22:01:09;26.39;85.61
13496;DHT22;6820;49.374;8.452;2022-08-23T22:05:11;26.34;85.41
13496;DHT22;6820;49.374;8.452;2022-08-23T22:09:15;26.29;85.02
13496;DHT22;6820;49.374;8.452;2022-08-23T22:13:18;26.28;84.91
13496;DHT22;6820;49.374;8.452;2022-08-23T22:17:20;26.24;85.02
13496;DHT22;6820;49.374;8.452;2022-08-23T22:21:22;26.21;84.76
13496;DHT22;6820;49.374;8.452;2022-08-23T22:25:23;26.19;83.76
13496;DHT22;6820;49.374;8.452;2022-08-23T22:29:25;26.12;83.27
13496;DHT22;6820;49.374;8.452;2022-08-23T22:33:27;26.11;82.97
13496;DHT22;6820;49.374;8.452;2022-08-23T22:37:29;26.06;82.78
13496;DHT22;6820;49.374;8.452;2022-08-23T22:41:30;26.03;82.48
13496;DHT22;6820;49.374;8.452;2022-08-23T22:45:32;25.98;81.29
13496;DHT22;6820;49.374;8.452;2022-08-23T22:49:33;25.94;80.93
13496;DHT22;6820;49.374;8.452;2022-08-23T22:53:35;25.86;80.54
13496;DHT22;6820;49.374;8.452;2022-08-23T22:57:39;25.86;80.73
13496;DHT22;6820;49.374;8.452;2022-08-23T23:01:45;25.86;80.93
13496;DHT22;6820;49.374;8.452;2022-08-23T23:05:49;25.83;81.03
13496;DHT22;6820;49.374;8.452;2022-08-23T23:09:51;25.79;80.93
13496;DHT22;6820;49.374;8.452;2022-08-23T23:13:52;25.78;80.83
13496;DHT22;6820;49.374;8.452;2022-08-23T23:17:54;25.72;81.23
13496;DHT22;6820;49.374;8.452;2022-08-23T23:21:56;25.67;82.16
13496;DHT22;6820;49.374;8.452;2022-08-23T23:25:59;25.61;82.65
13496;DHT22;6820;49.374;8.452;2022-08-23T23:30:00;25.53;83.25
13496;DHT22;6820;49.374;8.452;2022-08-23T23:34:02;25.45;83.79
13496;DHT22;6820;49.374;8.452;2022-08-23T23:38:04;25.39;83.98
13496;DHT22;6820;49.374;8.452;2022-08-23T23:42:07;25.34;83.98
13496;DHT22;6820;49.374;8.452;2022-08-23T23:46:10;25.29;84.19
13496;DHT22;6820;49.374;8.452;2022-08-23T23:50:13;25.19;84.52
13496;DHT22;6820;49.374;8.452;2022-08-23T23:54:16;25.09;84.82
13496;DHT22;6820;49.374;8.452;2022-08-23T23:58:17;24.99;85.31
